Time;durP1;ratioP1;P1;durP2;ratioP2;P2;SDS_P1;SDS_P2;PMS_P1;PMS_P2;Temp;Humidity;BMP_temperature;BMP_pressure;BME280_temperature;BME280_humidity;BME280_pressure;Samples;Min_cycle;Max_cycle;Signal;HPM_P1;HPM_P2
2021/10/04 04:01:06;;;;;;;1.20;1.20;;;12.70;99.90;;;;;;5653891;23;20488;-71
2021/10/04 04:03:32;;;;;;;1.30;1.20;;;12.60;99.90;;;;;;4933752;29;20465;-72
2021/10/04 04:05:59;;;;;;;1.70;1.65;;;12.60;99.90;;;;;;4935132;28;20218;-71
2021/10/04 04:08:26;;;;;;;1.70;1.60;;;12.60;99.90;;;;;;4934815;29;20292;-71
2021/10/04 04:10:52;;;;;;;1.55;1.42;;;12.60;99.90;;;;;;4933989;29;20651;-71
2021/10/04 04:13:19;;;;;;;1.85;1.60;;;12.60;99.90;;;;;;4934909;29;20229;-71
2021/10/04 04:15:46;;;;;;;1.55;1.55;;;12.60;99.90;;;;;;4935057;29;20218;-70
2021/10/04 04:18:14;;;;;;;1.48;1.48;;;12.60;99.90;;;;;;4934676;29;20209;-72
2021/10/04 04:20:42;;;;;;;1.45;1.45;;;12.60;99.90;;;;;;4932670;29;20233;-71
2021/10/04 04:23:08;;;;;;;1.95;1.65;;;12.60;99.90;;;;;;4934920;29;20260;-71
2021/10/04 04:25:35;;;;;;;1.90;1.80;;;12.60;99.90;;;;;;4934724;29;20659;-71
2021/10/04 04:28:03;;;;;;;1.73;1.60;;;12.60;99.90;;;;;;4935149;29;20588;-71
2021/10/04 04:30:30;;;;;;;3.83;1.60;;;12.60;99.90;;;;;;4934807;29;20251;-71
2021/10/04 04:32:57;;;;;;;1.50;1.35;;;12.60;99.90;;;;;;4934559;29;20582;-71
2021/10/04 04:35:25;;;;;;;1.40;1.40;;;12.60;99.90;;;;;;4933855;29;20209;-71
2021/10/04 04:37:51;;;;;;;2.65;2.22;;;12.50;99.90;;;;;;4934723;29;20269;-71
2021/10/04 04:40:19;;;;;;;2.85;1.27;;;12.50;99.90;;;;;;4934476;29;20217;-71
2021/10/04 04:42:47;;;;;;;1.70;1.70;;;12.50;99.90;;;;;;4932753;29;20261;-71
2021/10/04 04:45:16;;;;;;;2.30;2.15;;;12.50;99.90;;;;;;4934727;29;20214;-71
2021/10/04 04:47:43;;;;;;;1.40;1.40;;;12.50;99.90;;;;;;4938549;29;20225;-71
2021/10/04 04:50:10;;;;;;;1.70;1.60;;;12.50;99.90;;;;;;4937433;29;20213;-71
2021/10/04 04:52:38;;;;;;;1.63;1.63;;;12.50;99.90;;;;;;4938092;29;20237;-73
2021/10/04 04:55:06;;;;;;;1.73;1.63;;;12.50;99.90;;;;;;4938294;29;20269;-72
2021/10/04 04:57:33;;;;;;;2.00;1.90;;;12.50;99.90;;;;;;4938431;29;20257;-71
2021/10/04 04:59:59;;;;;;;1.33;1.33;;;12.40;99.90;;;;;;4938245;29;20314;-71
2021/10/04 05:02:26;;;;;;;2.30;2.20;;;12.40;99.90;;;;;;4937832;29;20289;-71
2021/10/04 05:04:53;;;;;;;1.63;1.52;;;12.40;99.90;;;;;;4937034;29;20218;-71
2021/10/04 05:07:20;;;;;;;1.85;1.65;;;12.40;99.90;;;;;;4938432;29;20309;-70
2021/10/04 05:09:47;;;;;;;2.00;1.88;;;12.40;99.90;;;;;;4938038;29;20210;-71
2021/10/04 05:12:14;;;;;;;1.98;1.98;;;12.40;99.90;;;;;;4937797;29;20229;-71
2021/10/04 05:14:41;;;;;;;1.50;1.50;;;12.40;99.90;;;;;;4937872;29;20261;-71
2021/10/04 05:17:07;;;;;;;1.77;1.73;;;12.40;99.90;;;;;;4938373;29;20265;-71
2021/10/04 05:19:34;;;;;;;1.77;1.75;;;12.40;99.90;;;;;;4937109;29;20210;-71
2021/10/04 05:22:01;;;;;;;2.47;2.28;;;12.30;99.90;;;;;;4937845;29;20226;-71
2021/10/04 05:24:27;;;;;;;1.60;1.50;;;12.30;99.90;;;;;;4937983;29;20206;-73
2021/10/04 05:26:56;;;;;;;2.08;1.90;;;12.40;99.90;;;;;;4938264;29;20217;-73
2021/10/04 05:29:23;;;;;;;2.05;2.05;;;12.40;99.90;;;;;;4937956;29;20217;-73
2021/10/04 05:31:50;;;;;;;2.25;2.05;;;12.40;99.90;;;;;;4937769;29;20814;-72
2021/10/04 05:34:17;;;;;;;2.00;2.00;;;12.40;99.90;;;;;;4936697;29;20269;-73
2021/10/04 05:36:44;;;;;;;2.58;2.17;;;12.40;99.90;;;;;;4937926;29;20214;-73
2021/10/04 05:39:10;;;;;;;2.33;2.08;;;12.40;99.90;;;;;;4937598;29;20214;-73
2021/10/04 05:41:37;;;;;;;2.40;2.30;;;12.40;99.90;;;;;;4937903;29;20606;-73
2021/10/04 05:44:07;;;;;;;1.75;1.70;;;12.50;99.90;;;;;;4937388;29;20214;-73
2021/10/04 05:46:34;;;;;;;2.00;2.00;;;12.40;99.90;;;;;;4937589;29;20260;-73
2021/10/04 05:49:01;;;;;;;1.80;1.80;;;12.50;99.90;;;;;;4937065;29;20284;-73
2021/10/04 05:51:27;;;;;;;2.67;2.47;;;12.50;99.90;;;;;;4937747;29;20230;-73
2021/10/04 05:53:54;;;;;;;2.97;2.35;;;12.50;99.90;;;;;;4937284;29;20289;-73
2021/10/04 05:56:21;;;;;;;1.80;1.70;;;12.60;99.90;;;;;;4937613;29;20753;-73
2021/10/04 05:58:47;;;;;;;2.22;2.13;;;12.60;99.90;;;;;;4936631;29;20309;-73
2021/10/04 06:01:15;;;;;;;3.20;1.65;;;12.60;99.90;;;;;;4937070;29;20721;-72
2021/10/04 06:03:42;;;;;;;1.65;1.60;;;12.60;99.90;;;;;;4936161;29;20273;-73
2021/10/04 06:06:09;;;;;;;2.92;2.55;;;12.70;99.90;;;;;;4937516;29;20224;-71
2021/10/04 06:08:35;;;;;;;2.42;1.80;;;12.70;99.90;;;;;;4937061;29;20312;-71
2021/10/04 06:11:02;;;;;;;1.60;1.50;;;12.70;99.90;;;;;;4937274;29;20312;-71
2021/10/04 06:13:29;;;;;;;2.13;2.00;;;12.70;99.90;;;;;;4936663;29;20922;-71
2021/10/04 06:15:55;;;;;;;1.75;1.63;;;12.70;99.90;;;;;;4936962;29;20481;-71
2021/10/04 06:18:23;;;;;;;1.73;1.73;;;12.70;99.90;;;;;;4936560;29;20218;-71
2021/10/04 06:20:50;;;;;;;1.50;1.50;;;12.80;99.90;;;;;;4936438;29;20241;-71
2021/10/04 06:23:17;;;;;;;3.80;1.77;;;12.80;99.90;;;;;;4936829;29;20934;-71
2021/10/04 06:25:44;;;;;;;2.03;1.93;;;12.80;99.90;;;;;;4936735;29;20485;-71
2021/10/04 06:28:10;;;;;;;2.70;1.50;;;12.90;99.90;;;;;;4936985;29;20513;-71
2021/10/04 06:30:37;;;;;;;1.67;1.67;;;12.90;99.90;;;;;;4936583;29;20489;-72
2021/10/04 06:33:04;;;;;;;2.10;1.60;;;12.90;99.90;;;;;;4936962;29;20492;-72
2021/10/04 06:35:32;;;;;;;1.83;1.70;;;13.00;99.90;;;;;;4936005;29;20972;-72
2021/10/04 06:37:59;;;;;;;1.90;1.40;;;13.00;99.90;;;;;;4936955;29;20465;-72
2021/10/04 06:40:25;;;;;;;2.53;1.63;;;13.00;99.90;;;;;;4936993;29;20469;-72
2021/10/04 06:42:52;;;;;;;1.90;1.80;;;13.00;99.90;;;;;;4936725;29;20465;-70
2021/10/04 06:45:18;;;;;;;1.70;1.70;;;13.10;99.90;;;;;;4936819;29;20465;-72
2021/10/04 06:47:45;;;;;;;1.57;1.57;;;13.10;99.90;;;;;;4936726;29;20485;-71
2021/10/04 06:50:13;;;;;;;3.70;1.63;;;13.10;99.90;;;;;;4935643;29;20470;-71
2021/10/04 06:52:42;;;;;;;1.70;1.70;;;13.20;99.90;;;;;;4936546;29;20493;-71
2021/10/04 06:55:10;;;;;;;1.83;1.40;;;13.20;99.90;;;;;;4936197;29;20473;-71
2021/10/04 06:57:38;;;;;;;1.57;1.47;;;13.20;99.90;;;;;;4934361;29;20481;-71
2021/10/04 07:00:07;;;;;;;1.70;1.60;;;13.20;99.90;;;;;;4936274;29;20478;-71
2021/10/04 07:02:34;;;;;;;3.60;1.47;;;13.30;99.90;;;;;;4949604;29;20476;-71
2021/10/04 07:05:01;;;;;;;2.13;2.03;;;13.30;99.90;;;;;;4954858;28;20496;-71
2021/10/04 07:07:27;;;;;;;1.17;1.17;;;13.30;99.90;;;;;;4955580;28;20548;-71
2021/10/04 07:09:56;;;;;;;1.67;1.67;;;13.30;99.90;;;;;;4954828;28;20475;-71
2021/10/04 07:12:23;;;;;;;1.80;1.80;;;13.30;99.90;;;;;;4955251;28;20485;-71
2021/10/04 07:14:52;;;;;;;1.70;1.60;;;13.40;99.90;;;;;;4955111;28;20850;-71
2021/10/04 07:17:19;;;;;;;2.80;2.70;;;13.40;99.90;;;;;;4955408;28;20465;-71
2021/10/04 07:19:45;;;;;;;1.67;1.63;;;13.50;99.90;;;;;;4954256;28;20481;-71
2021/10/04 07:22:12;;;;;;;1.63;1.37;;;13.60;99.90;;;;;;4954932;28;20540;-71
2021/10/04 07:24:39;;;;;;;3.70;1.70;;;13.60;99.90;;;;;;4955013;28;20468;-72
2021/10/04 07:27:07;;;;;;;1.53;1.53;;;13.60;99.90;;;;;;4955436;28;20542;-71
2021/10/04 07:29:34;;;;;;;2.20;1.70;;;13.70;99.90;;;;;;4955075;28;20598;-72
2021/10/04 07:32:01;;;;;;;1.23;1.23;;;13.80;99.90;;;;;;4955083;28;20480;-72
2021/10/04 07:34:28;;;;;;;1.53;1.43;;;13.80;99.90;;;;;;4954377;28;20571;-72
2021/10/04 07:36:55;;;;;;;1.43;1.43;;;13.90;99.90;;;;;;4955395;28;20473;-71
2021/10/04 07:39:21;;;;;;;2.87;1.60;;;13.90;99.90;;;;;;4954580;28;20485;-72
2021/10/04 07:41:48;;;;;;;2.27;1.33;;;14.00;99.90;;;;;;4955233;28;20485;-71
2021/10/04 07:44:20;;;;;;;1.20;1.20;;;14.00;99.90;;;;;;4954579;28;20464;-74
2021/10/04 07:46:47;;;;;;;1.40;1.30;;;14.10;99.90;;;;;;4955431;28;20464;-74
2021/10/04 07:49:14;;;;;;;1.33;1.10;;;14.10;99.90;;;;;;4954254;28;20519;-74
2021/10/04 07:51:40;;;;;;;1.27;1.27;;;14.10;99.90;;;;;;4943515;28;20493;-74
2021/10/04 07:54:07;;;;;;;1.30;1.30;;;14.10;99.90;;;;;;4935133;29;21021;-71
2021/10/04 07:56:34;;;;;;;1.00;1.00;;;14.20;99.90;;;;;;4935569;29;20530;-74
2021/10/04 07:59:01;;;;;;;2.93;1.57;;;14.20;99.90;;;;;;4935566;29;20938;-73
2021/10/04 08:01:31;;;;;;;3.80;1.30;;;14.20;99.90;;;;;;4934417;29;20516;-74
2021/10/04 08:03:57;;;;;;;1.40;1.20;;;14.30;99.90;;;;;;4934354;29;20812;-73
2021/10/04 08:06:26;;;;;;;1.50;1.03;;;14.30;99.90;;;;;;4935530;29;20529;-73
2021/10/04 08:08:53;;;;;;;1.27;1.00;;;14.40;99.90;;;;;;4935346;29;20556;-72
2021/10/04 08:11:20;;;;;;;1.90;1.40;;;14.40;99.90;;;;;;4935535;29;20486;-72
2021/10/04 08:13:50;;;;;;;1.70;1.17;;;14.50;99.90;;;;;;4935136;29;20485;-72
2021/10/04 08:16:17;;;;;;;0.97;0.97;;;14.50;99.90;;;;;;4935747;29;20466;-72
2021/10/04 08:18:45;;;;;;;1.60;1.20;;;14.60;99.90;;;;;;4934304;29;20954;-72
2021/10/04 08:21:12;;;;;;;1.73;1.43;;;14.60;99.90;;;;;;4935146;29;20490;-73
2021/10/04 08:23:39;;;;;;;1.20;0.83;;;14.70;99.90;;;;;;4932171;29;20552;-73
2021/10/04 08:26:06;;;;;;;1.30;0.83;;;14.70;99.90;;;;;;4935345;29;20466;-71
2021/10/04 08:28:33;;;;;;;2.33;1.30;;;14.80;99.90;;;;;;4935402;29;20525;-72
2021/10/04 08:30:59;;;;;;;1.87;1.77;;;14.80;99.90;;;;;;4935052;29;20834;-71
2021/10/04 08:33:26;;;;;;;1.50;1.13;;;14.90;99.90;;;;;;4934273;29;20501;-72
2021/10/04 08:35:55;;;;;;;1.13;1.10;;;14.90;99.90;;;;;;4934699;29;20623;-71
2021/10/04 08:38:22;;;;;;;0.90;0.90;;;15.00;99.90;;;;;;4935222;29;20512;-71
2021/10/04 08:40:49;;;;;;;1.67;0.90;;;15.00;99.90;;;;;;4935032;29;20537;-72
2021/10/04 08:43:15;;;;;;;1.00;1.00;;;15.00;99.90;;;;;;4934901;29;20465;-72
2021/10/04 08:45:44;;;;;;;0.93;0.93;;;15.00;99.90;;;;;;4935236;29;20548;-72
2021/10/04 08:48:12;;;;;;;0.80;0.80;;;15.10;99.90;;;;;;4935005;29;20843;-72
2021/10/04 08:50:39;;;;;;;0.77;0.77;;;15.20;99.90;;;;;;4934659;29;20489;-71
2021/10/04 08:53:07;;;;;;;1.13;0.83;;;15.30;99.90;;;;;;4935060;29;20540;-71
2021/10/04 08:55:35;;;;;;;2.50;1.10;;;15.40;99.90;;;;;;4935117;29;20465;-71
2021/10/04 08:58:03;;;;;;;1.30;1.13;;;15.40;99.90;;;;;;4935086;29;20481;-71
2021/10/04 09:00:29;;;;;;;0.90;0.70;;;15.40;99.90;;;;;;4934663;29;20541;-71
2021/10/04 09:03:00;;;;;;;1.40;1.30;;;15.30;99.90;;;;;;4935632;29;20474;-71
2021/10/04 09:05:27;;;;;;;1.17;1.17;;;15.30;99.90;;;;;;4934555;29;20469;-71
2021/10/04 09:07:56;;;;;;;0.90;0.90;;;15.30;99.90;;;;;;4934869;29;20532;-71
2021/10/04 09:10:26;;;;;;;1.13;1.13;;;15.40;99.90;;;;;;4934766;29;20470;-72
2021/10/04 09:12:56;;;;;;;1.00;1.00;;;15.40;99.90;;;;;;4934645;29;20475;-74
2021/10/04 09:15:34;;;;;;;2.40;1.10;;;15.50;99.90;;;;;;4934743;29;20552;-73
2021/10/04 09:18:02;;;;;;;3.60;1.17;;;15.50;99.90;;;;;;4934853;29;20492;-74
2021/10/04 09:21:02;;;;;;;1.90;1.53;;;15.60;99.90;;;;;;4933862;29;21006;-74
2021/10/04 09:23:45;;;;;;;2.97;1.20;;;15.60;99.90;;;;;;4934692;29;20469;-73
2021/10/04 09:26:32;;;;;;;1.10;1.07;;;15.70;99.90;;;;;;4934938;29;20464;-74
2021/10/04 09:29:00;;;;;;;0.70;0.70;;;15.70;99.90;;;;;;4934824;29;20469;-74
2021/10/04 09:31:29;;;;;;;1.70;1.20;;;15.90;99.90;;;;;;4932447;29;20489;-73
2021/10/04 09:34:15;;;;;;;2.00;1.03;;;16.00;99.90;;;;;;4936768;29;20489;-74
2021/10/04 09:36:43;;;;;;;2.10;1.37;;;16.10;99.90;;;;;;4938622;29;20465;-74
2021/10/04 09:39:22;;;;;;;1.00;1.00;;;16.20;99.90;;;;;;4938100;29;20464;-74
2021/10/04 09:42:10;;;;;;;0.70;0.70;;;16.10;99.90;;;;;;4937973;29;20941;-73
2021/10/04 09:44:56;;;;;;;1.83;1.40;;;16.20;99.90;;;;;;4938001;29;20474;-74
2021/10/04 09:47:25;;;;;;;1.73;1.20;;;16.20;99.90;;;;;;4938660;29;20466;-75
2021/10/04 09:50:01;;;;;;;5.03;0.83;;;16.30;99.90;;;;;;4941412;29;20465;-75
2021/10/04 09:52:39;;;;;;;1.10;1.07;;;16.30;99.90;;;;;;4940172;29;20992;-73
2021/10/04 09:55:18;;;;;;;2.83;1.10;;;16.20;99.90;;;;;;4938535;29;20860;-73
2021/10/04 09:58:02;;;;;;;1.20;1.20;;;16.30;99.90;;;;;;4937902;29;20843;-73
2021/10/04 10:00:35;;;;;;;1.87;1.00;;;16.30;99.90;;;;;;4937252;29;20547;-73
2021/10/04 10:03:02;;;;;;;2.73;1.07;;;16.40;99.90;;;;;;4938344;29;20505;-73
2021/10/04 10:05:30;;;;;;;1.83;1.00;;;16.50;99.90;;;;;;4937151;29;20465;-73
2021/10/04 10:07:57;;;;;;;2.20;1.07;;;16.50;99.90;;;;;;4937572;29;20482;-72
2021/10/04 10:10:25;;;;;;;0.57;0.57;;;16.60;99.90;;;;;;4937150;29;20470;-73
2021/10/04 10:12:52;;;;;;;1.13;0.90;;;16.50;99.90;;;;;;4937571;29;20466;-71
2021/10/04 10:15:23;;;;;;;2.40;1.37;;;16.50;99.90;;;;;;4937138;29;20521;-72
2021/10/04 10:17:54;;;;;;;1.17;0.90;;;16.40;99.90;;;;;;4937334;29;20891;-71
2021/10/04 10:20:23;;;;;;;1.23;0.90;;;16.40;99.90;;;;;;4937119;29;20556;-71
2021/10/04 10:22:51;;;;;;;1.30;0.67;;;16.40;99.90;;;;;;4937162;29;20525;-71
2021/10/04 10:25:33;;;;;;;0.87;0.83;;;16.40;99.90;;;;;;4937111;29;20461;-71
2021/10/04 10:28:00;;;;;;;3.83;1.10;;;16.40;99.90;;;;;;4936941;29;20475;-73
2021/10/04 10:30:29;;;;;;;0.90;0.90;;;16.50;99.90;;;;;;4939282;29;20548;-73
2021/10/04 10:32:57;;;;;;;1.80;0.93;;;16.50;99.90;;;;;;4939323;29;20474;-73
2021/10/04 10:35:48;;;;;;;1.27;0.90;;;16.50;99.90;;;;;;4936838;29;20497;-72
2021/10/04 10:38:15;;;;;;;1.00;0.90;;;16.60;99.90;;;;;;4940140;29;20549;-73
2021/10/04 10:40:41;;;;;;;0.80;0.80;;;16.60;99.90;;;;;;4944353;29;21025;-73
2021/10/04 10:43:10;;;;;;;2.00;1.20;;;16.60;99.90;;;;;;4940805;29;20482;-72
2021/10/04 10:45:44;;;;;;;2.40;1.10;;;16.60;99.90;;;;;;4936823;29;20874;-72
2021/10/04 10:48:12;;;;;;;1.90;1.17;;;16.70;99.90;;;;;;4936761;29;20565;-71
2021/10/04 10:50:44;;;;;;;0.87;0.87;;;16.80;99.90;;;;;;4935937;29;20537;-72
2021/10/04 10:53:20;;;;;;;2.00;1.00;;;16.80;99.90;;;;;;4935395;29;20839;-72
2021/10/04 10:55:54;;;;;;;2.93;0.80;;;16.80;99.90;;;;;;4936580;29;20861;-71
2021/10/04 10:58:23;;;;;;;1.80;0.60;;;16.90;99.90;;;;;;4936355;29;20465;-71
2021/10/04 11:01:13;;;;;;;2.53;1.00;;;16.90;99.90;;;;;;4936126;29;20501;-71
2021/10/04 11:03:49;;;;;;;1.27;1.27;;;17.00;99.90;;;;;;4935750;29;20560;-71
2021/10/04 11:06:16;;;;;;;0.90;0.90;;;17.00;99.90;;;;;;4936454;29;20540;-71
2021/10/04 11:08:59;;;;;;;1.40;1.40;;;17.10;99.90;;;;;;4936205;29;20466;-72
2021/10/04 11:11:30;;;;;;;2.77;0.70;;;17.10;99.90;;;;;;4936028;29;20580;-72
2021/10/04 11:14:16;;;;;;;3.50;1.20;;;17.10;99.90;;;;;;4935860;29;20461;-72
2021/10/04 11:16:47;;;;;;;2.03;1.50;;;17.20;99.90;;;;;;4936749;29;20485;-73
2021/10/04 11:19:26;;;;;;;0.73;0.73;;;17.20;99.90;;;;;;4935280;29;20562;-72
2021/10/04 11:21:53;;;;;;;1.07;1.00;;;17.30;99.90;;;;;;4935776;29;20491;-72
2021/10/04 11:24:21;;;;;;;1.00;0.90;;;17.30;99.90;;;;;;4935751;29;20490;-71
2021/10/04 11:26:48;;;;;;;0.83;0.83;;;17.20;99.90;;;;;;4936133;29;20509;-71
2021/10/04 11:29:18;;;;;;;1.40;0.97;;;17.20;99.90;;;;;;4935621;29;20797;-71
2021/10/04 11:31:46;;;;;;;3.87;1.00;;;17.20;99.90;;;;;;4936290;29;20517;-71
2021/10/04 11:34:15;;;;;;;0.73;0.73;;;17.20;99.90;;;;;;4934646;29;20473;-72
2021/10/04 11:36:45;;;;;;;0.80;0.80;;;17.20;99.90;;;;;;4935792;29;20469;-72
2021/10/04 11:39:14;;;;;;;1.47;1.47;;;17.20;99.90;;;;;;4935513;29;20462;-72
2021/10/04 11:41:44;;;;;;;2.47;0.97;;;17.20;99.90;;;;;;4935410;29;20533;-72
2021/10/04 11:44:13;;;;;;;2.53;1.23;;;17.20;99.90;;;;;;4935349;29;20473;-71
2021/10/04 11:46:43;;;;;;;1.20;1.10;;;17.30;99.90;;;;;;4935321;29;20524;-71
2021/10/04 11:49:13;;;;;;;0.90;0.90;;;17.30;99.90;;;;;;4934663;29;20462;-72
2021/10/04 11:51:46;;;;;;;1.77;0.90;;;17.40;99.90;;;;;;4935824;29;20485;-72
2021/10/04 11:54:14;;;;;;;2.57;1.60;;;17.30;99.90;;;;;;4934953;29;20477;-72
2021/10/04 11:56:42;;;;;;;0.87;0.87;;;17.30;99.90;;;;;;4935038;28;20465;-71
2021/10/04 11:59:09;;;;;;;2.60;0.97;;;17.20;99.90;;;;;;4935407;29;20473;-71
2021/10/04 12:01:38;;;;;;;0.70;0.70;;;17.20;99.90;;;;;;4935067;29;21006;-71
2021/10/04 12:04:08;;;;;;;3.20;1.17;;;17.20;99.90;;;;;;4933536;29;20481;-71
2021/10/04 12:06:37;;;;;;;0.80;0.80;;;17.20;99.90;;;;;;4935712;29;20472;-72
2021/10/04 12:09:06;;;;;;;4.23;1.20;;;17.30;99.90;;;;;;4935103;29;20469;-71
2021/10/04 12:11:34;;;;;;;4.77;1.20;;;17.30;99.90;;;;;;4935538;29;20485;-71
2021/10/04 12:14:01;;;;;;;1.00;0.80;;;17.30;99.90;;;;;;4934677;29;20485;-72
2021/10/04 12:16:30;;;;;;;1.37;0.70;;;17.20;99.90;;;;;;4935207;29;21028;-72
2021/10/04 12:19:00;;;;;;;1.80;1.03;;;17.10;99.90;;;;;;4934281;29;20461;-73
2021/10/04 12:21:31;;;;;;;1.80;0.90;;;17.10;99.90;;;;;;4935283;29;20489;-73
2021/10/04 12:24:18;;;;;;;1.03;0.80;;;17.10;99.90;;;;;;4934738;29;20568;-72
2021/10/04 12:26:47;;;;;;;1.97;0.90;;;17.10;99.90;;;;;;4934852;29;20585;-73
2021/10/04 12:29:28;;;;;;;1.37;0.70;;;17.10;99.90;;;;;;4935191;29;20501;-72
2021/10/04 12:31:54;;;;;;;2.13;0.70;;;17.20;99.90;;;;;;4935117;29;20498;-70
2021/10/04 12:34:22;;;;;;;3.10;1.30;;;17.30;99.90;;;;;;4933694;29;20529;-70
2021/10/04 12:36:49;;;;;;;1.23;1.10;;;17.30;99.90;;;;;;4935258;29;20520;-71
2021/10/04 12:39:19;;;;;;;0.80;0.80;;;17.30;99.90;;;;;;4935005;29;20499;-71
2021/10/04 12:41:47;;;;;;;2.10;1.13;;;17.40;99.90;;;;;;4935076;29;20485;-73
2021/10/04 12:44:15;;;;;;;2.77;0.80;;;17.40;99.90;;;;;;4934826;29;20528;-73
2021/10/04 12:47:01;;;;;;;1.33;0.90;;;17.50;99.90;;;;;;4934866;29;20817;-73
2021/10/04 12:49:30;;;;;;;1.70;0.87;;;17.50;99.90;;;;;;4934088;29;20524;-72
2021/10/04 12:51:57;;;;;;;1.20;1.20;;;17.50;99.90;;;;;;4934953;29;20648;-72
2021/10/04 12:54:29;;;;;;;2.53;1.40;;;17.40;99.90;;;;;;4934731;29;20477;-71
2021/10/04 12:56:56;;;;;;;2.27;1.20;;;17.40;99.90;;;;;;4934938;29;20485;-71
2021/10/04 12:59:27;;;;;;;2.83;1.00;;;17.50;99.90;;;;;;4934817;29;20985;-73
2021/10/04 13:01:55;;;;;;;1.17;0.80;;;17.50;99.90;;;;;;4934765;29;20495;-72
2021/10/04 13:04:27;;;;;;;2.20;0.70;;;17.40;99.90;;;;;;4933812;29;20457;-72
2021/10/04 13:06:54;;;;;;;2.97;1.07;;;17.40;99.90;;;;;;4936914;29;20905;-73
2021/10/04 13:09:22;;;;;;;1.63;0.83;;;17.30;99.90;;;;;;4938077;29;20828;-73
2021/10/04 13:11:52;;;;;;;1.23;1.13;;;17.30;99.90;;;;;;4938599;29;20532;-71
2021/10/04 13:14:19;;;;;;;1.60;1.10;;;17.40;99.90;;;;;;4938306;29;20873;-72
2021/10/04 13:16:47;;;;;;;1.17;1.07;;;17.40;99.90;;;;;;4938249;29;20485;-71
2021/10/04 13:19:16;;;;;;;0.90;0.87;;;17.50;99.90;;;;;;4937635;29;20465;-71
2021/10/04 13:21:44;;;;;;;1.83;0.83;;;17.50;99.90;;;;;;4938674;29;20496;-71
2021/10/04 13:24:12;;;;;;;0.77;0.77;;;17.40;99.90;;;;;;4937711;29;20576;-71
2021/10/04 13:26:38;;;;;;;4.63;0.90;;;17.40;99.90;;;;;;4938406;29;20465;-70
2021/10/04 13:29:06;;;;;;;5.97;1.33;;;17.40;99.90;;;;;;4937937;29;20540;-71
2021/10/04 13:31:34;;;;;;;1.80;0.73;;;17.40;99.90;;;;;;4938357;29;20485;-71
2021/10/04 13:34:00;;;;;;;2.37;0.80;;;17.30;99.90;;;;;;4937011;29;20484;-71
2021/10/04 13:36:27;;;;;;;4.87;1.70;;;17.40;99.90;;;;;;4937997;29;20902;-71
2021/10/04 13:38:54;;;;;;;1.43;1.33;;;17.40;99.90;;;;;;4937879;29;20544;-70
2021/10/04 13:41:21;;;;;;;4.47;0.90;;;17.40;99.90;;;;;;4937922;29;20489;-70
2021/10/04 13:43:48;;;;;;;1.13;0.97;;;17.40;99.90;;;;;;4937157;29;20486;-70
2021/10/04 13:46:17;;;;;;;1.27;0.90;;;17.50;99.90;;;;;;4937885;29;20461;-71
2021/10/04 13:48:44;;;;;;;1.00;0.90;;;17.50;99.90;;;;;;4937380;29;20564;-71
2021/10/04 13:51:11;;;;;;;1.63;1.00;;;17.50;99.90;;;;;;4937615;29;20540;-71
2021/10/04 13:53:38;;;;;;;0.90;0.70;;;17.50;99.90;;;;;;4936269;29;20486;-71
2021/10/04 13:56:06;;;;;;;2.30;0.97;;;17.50;99.90;;;;;;4937722;29;20545;-71
2021/10/04 13:58:35;;;;;;;1.17;1.17;;;17.60;99.90;;;;;;4937336;29;20466;-71
2021/10/04 14:01:03;;;;;;;2.50;0.97;;;17.70;99.90;;;;;;4937597;29;20584;-71
2021/10/04 14:03:31;;;;;;;3.67;1.27;;;17.80;99.90;;;;;;4936378;29;20619;-72
2021/10/04 14:06:00;;;;;;;2.30;0.77;;;17.90;99.90;;;;;;4937325;29;20569;-71
2021/10/04 14:08:26;;;;;;;1.13;0.70;;;17.90;99.90;;;;;;4943926;29;20828;-71
2021/10/04 14:10:53;;;;;;;2.40;1.00;;;17.80;99.90;;;;;;4956237;28;20493;-71
2021/10/04 14:13:20;;;;;;;7.40;0.93;;;17.80;99.90;;;;;;4956265;28;20468;-71
2021/10/04 14:15:47;;;;;;;2.00;0.80;;;17.70;99.90;;;;;;4956226;28;20602;-71
2021/10/04 14:18:13;;;;;;;1.40;0.93;;;17.70;99.90;;;;;;4955249;28;20504;-72
2021/10/04 14:20:42;;;;;;;1.63;0.90;;;17.60;99.90;;;;;;4955782;28;20802;-71
2021/10/04 14:23:09;;;;;;;3.50;0.63;;;17.50;99.90;;;;;;4955897;28;20957;-72
2021/10/04 14:25:36;;;;;;;1.73;1.03;;;17.50;99.90;;;;;;4956180;28;20523;-71
2021/10/04 14:28:03;;;;;;;1.73;0.80;;;17.40;99.90;;;;;;4956450;28;20481;-71
2021/10/04 14:30:29;;;;;;;5.03;0.70;;;17.40;99.90;;;;;;4956027;28;20955;-70
2021/10/04 14:32:56;;;;;;;2.80;0.60;;;17.30;99.90;;;;;;4955992;28;20886;-71
2021/10/04 14:35:23;;;;;;;0.90;0.90;;;17.30;99.90;;;;;;4954689;28;20484;-71
2021/10/04 14:37:53;;;;;;;1.30;0.80;;;17.30;99.90;;;;;;4955818;28;20473;-72
2021/10/04 14:40:22;;;;;;;1.80;0.93;;;17.20;99.90;;;;;;4951333;28;20544;-72
2021/10/04 14:42:50;;;;;;;1.60;0.60;;;17.20;99.90;;;;;;4936829;29;20469;-71
2021/10/04 14:45:17;;;;;;;3.07;1.20;;;17.20;99.90;;;;;;4936359;29;20978;-71
2021/10/04 14:47:44;;;;;;;2.30;0.83;;;17.20;99.90;;;;;;4937080;29;20534;-71
2021/10/04 14:50:10;;;;;;;1.80;0.90;;;17.20;99.90;;;;;;4935771;29;20465;-72
2021/10/04 14:52:38;;;;;;;0.87;0.70;;;17.30;99.90;;;;;;4936426;29;20473;-72
2021/10/04 14:55:10;;;;;;;0.63;0.63;;;17.30;99.90;;;;;;4936477;29;20549;-72
2021/10/04 14:57:37;;;;;;;0.80;0.70;;;17.30;99.90;;;;;;4936315;29;20477;-72
2021/10/04 15:00:04;;;;;;;1.17;1.03;;;17.30;99.90;;;;;;4936295;29;20880;-72
2021/10/04 15:02:31;;;;;;;1.00;0.80;;;17.30;99.90;;;;;;4935951;28;20549;-72
2021/10/04 15:04:57;;;;;;;1.67;1.10;;;17.20;99.90;;;;;;4935342;29;20827;-72
2021/10/04 15:07:24;;;;;;;1.03;0.50;;;17.20;99.90;;;;;;4936618;29;20525;-72
2021/10/04 15:09:50;;;;;;;0.37;0.37;;;17.20;99.90;;;;;;4936290;29;20561;-72
2021/10/04 15:12:18;;;;;;;1.60;0.70;;;17.10;99.90;;;;;;4936168;29;20552;-72
2021/10/04 15:14:45;;;;;;;2.67;0.70;;;17.10;99.90;;;;;;4936345;29;20462;-72
2021/10/04 15:17:12;;;;;;;0.70;0.70;;;17.00;99.90;;;;;;4936477;29;20521;-72
2021/10/04 15:19:39;;;;;;;0.90;0.90;;;17.00;99.90;;;;;;4935107;29;20528;-72
2021/10/04 15:22:05;;;;;;;1.17;0.93;;;17.00;99.90;;;;;;4935996;29;20496;-72
2021/10/04 15:24:32;;;;;;;2.47;0.70;;;17.00;99.90;;;;;;4936252;29;20476;-71
2021/10/04 15:26:59;;;;;;;1.03;0.80;;;17.00;99.90;;;;;;4936299;29;20587;-72
2021/10/04 15:29:27;;;;;;;1.60;1.10;;;17.00;99.90;;;;;;4935887;29;20481;-72
2021/10/04 15:31:54;;;;;;;1.10;1.00;;;16.90;99.90;;;;;;4936345;29;20486;-71
2021/10/04 15:34:21;;;;;;;1.03;1.03;;;16.90;99.90;;;;;;4935607;29;20548;-72
2021/10/04 15:36:48;;;;;;;1.43;1.10;;;16.90;99.90;;;;;;4936241;29;20580;-72
2021/10/04 15:39:15;;;;;;;0.83;0.83;;;16.80;99.90;;;;;;4935957;29;20504;-71
2021/10/04 15:41:42;;;;;;;1.07;1.07;;;16.80;99.90;;;;;;4935360;29;20490;-71
2021/10/04 15:44:08;;;;;;;0.70;0.70;;;16.80;99.90;;;;;;4935383;29;20469;-71
2021/10/04 15:46:36;;;;;;;4.33;0.97;;;16.70;99.90;;;;;;4935541;29;20470;-71
2021/10/04 15:49:03;;;;;;;1.00;0.97;;;16.70;99.90;;;;;;4934731;29;20465;-71
2021/10/04 15:51:30;;;;;;;0.97;0.97;;;16.70;99.90;;;;;;4935392;29;21002;-71
2021/10/04 15:53:57;;;;;;;0.70;0.70;;;16.60;99.90;;;;;;4934717;29;20979;-71
2021/10/04 15:56:23;;;;;;;1.77;1.63;;;16.60;99.90;;;;;;4935323;29;20493;-71
2021/10/04 15:58:50;;;;;;;1.10;1.10;;;16.50;99.90;;;;;;4935357;29;20537;-71
2021/10/04 16:01:17;;;;;;;1.40;1.40;;;16.50;99.90;;;;;;4935208;29;20493;-70
2021/10/04 16:03:45;;;;;;;1.80;1.70;;;16.50;99.90;;;;;;4934058;29;20525;-70
2021/10/04 16:06:12;;;;;;;2.40;1.10;;;16.40;99.90;;;;;;4935507;29;20473;-70
2021/10/04 16:08:42;;;;;;;1.80;1.13;;;16.40;99.90;;;;;;4934544;29;20466;-70
2021/10/04 16:11:09;;;;;;;3.70;1.60;;;16.30;99.90;;;;;;4934906;29;20488;-70
2021/10/04 16:13:36;;;;;;;2.97;1.20;;;16.30;99.90;;;;;;4934590;29;20461;-71
2021/10/04 16:16:03;;;;;;;1.20;1.20;;;16.30;99.90;;;;;;4934956;29;20517;-70
2021/10/04 16:18:30;;;;;;;0.97;0.97;;;16.30;99.90;;;;;;4934152;29;20477;-72
2021/10/04 16:20:58;;;;;;;3.23;1.10;;;16.20;99.90;;;;;;4934583;29;20497;-70
2021/10/04 16:23:25;;;;;;;3.47;1.10;;;16.20;99.90;;;;;;4934593;29;20469;-70
2021/10/04 16:25:52;;;;;;;1.30;1.30;;;16.10;99.90;;;;;;4934967;29;20470;-70
2021/10/04 16:28:18;;;;;;;2.87;1.20;;;16.00;99.90;;;;;;4934781;29;20476;-70
2021/10/04 16:30:45;;;;;;;2.53;1.13;;;16.00;99.90;;;;;;4934735;29;20489;-71
2021/10/04 16:33:14;;;;;;;1.13;0.93;;;15.90;99.90;;;;;;4932637;29;20485;-71
2021/10/04 16:35:41;;;;;;;1.67;1.10;;;15.80;99.90;;;;;;4934655;29;20480;-71
2021/10/04 16:38:09;;;;;;;1.00;1.00;;;15.80;99.90;;;;;;4934752;29;20473;-71
2021/10/04 16:40:37;;;;;;;3.87;1.77;;;15.70;99.90;;;;;;4934844;29;20501;-71
2021/10/04 16:43:04;;;;;;;1.00;1.00;;;15.70;99.90;;;;;;4938407;29;20476;-71
2021/10/04 16:45:31;;;;;;;1.70;1.50;;;15.60;99.90;;;;;;4938919;29;20453;-70
2021/10/04 16:47:58;;;;;;;1.33;1.23;;;15.60;99.90;;;;;;4938961;29;20465;-73
2021/10/04 16:50:25;;;;;;;1.63;1.53;;;15.50;99.90;;;;;;4939666;29;20476;-74
2021/10/04 16:52:53;;;;;;;1.53;1.53;;;15.50;99.90;;;;;;4938889;29;20504;-71
2021/10/04 16:55:21;;;;;;;1.70;1.60;;;15.40;99.90;;;;;;4938369;29;20477;-72